Time;durP1;ratioP1;P1;durP2;ratioP2;P2;SDS_P1;SDS_P2;PMS_P1;PMS_P2;Temp;Humidity;BMP_temperature;BMP_pressure;BME280_temperature;BME280_humidity;BME280_pressure;Samples;Min_cycle;Max_cycle;Signal;HPM_P1;HPM_P2
2023/06/17 00:00:24;;;;;;;6.22;3.47;;;;;;;20.11;86.08;100728.13;4921947;29;20103;-64
2023/06/17 00:02:51;;;;;;;5.88;3.28;;;;;;;20.07;86.57;100730.19;4923507;29;20284;-64
2023/06/17 00:05:17;;;;;;;6.35;3.20;;;;;;;19.99;87.19;100731.50;4920801;29;20043;-64
2023/06/17 00:07:43;;;;;;;7.50;3.88;;;;;;;19.96;87.77;100735.03;4931495;28;20038;-64
2023/06/17 00:10:09;;;;;;;6.93;3.13;;;;;;;20.06;87.55;100736.06;4980605;28;20035;-64
2023/06/17 00:12:36;;;;;;;8.20;3.25;;;;;;;20.05;87.92;100735.31;4972772;28;20046;-65
2023/06/17 00:15:04;;;;;;;4.40;3.17;;;;;;;20.11;87.41;100741.06;4976249;28;20037;-65
2023/06/17 00:17:50;;;;;;;6.80;3.47;;;;;;;20.00;88.23;100738.50;4970640;28;20093;-64
2023/06/17 00:20:15;;;;;;;6.70;3.65;;;;;;;19.97;88.72;100731.13;4921751;29;20049;-67
2023/06/17 00:22:46;;;;;;;4.68;3.03;;;;;;;20.03;88.37;100739.63;4930041;29;20401;-65
2023/06/17 00:25:12;;;;;;;11.25;4.40;;;;;;;20.01;88.88;100733.81;4919327;29;20067;-65
2023/06/17 00:27:39;;;;;;;6.07;3.53;;;;;;;20.04;88.89;100741.16;4927619;29;20533;-65
2023/06/17 00:30:06;;;;;;;3.92;2.50;;;;;;;19.99;89.12;100742.44;4911050;29;20028;-65
2023/06/17 00:32:31;;;;;;;6.05;3.10;;;;;;;20.03;89.30;100743.16;4915948;29;20051;-65
2023/06/17 00:34:57;;;;;;;8.05;3.35;;;;;;;20.08;89.23;100744.63;4909834;29;20527;-65
2023/06/17 00:37:23;;;;;;;6.47;2.97;;;;;;;20.04;89.57;100743.91;4900114;29;20141;-65
2023/06/17 00:39:48;;;;;;;7.03;3.50;;;;;;;20.03;89.35;100743.16;4906834;29;20122;-65
2023/06/17 00:42:15;;;;;;;5.22;3.15;;;;;;;20.02;89.56;100736.13;4906991;29;20126;-65
2023/06/17 00:44:40;;;;;;;6.07;3.17;;;;;;;20.05;89.81;100727.09;4907470;29;20040;-65
2023/06/17 00:47:07;;;;;;;5.20;3.50;;;;;;;20.05;89.60;100737.25;4918760;29;20047;-65
2023/06/17 00:49:36;;;;;;;9.80;3.65;;;;;;;20.11;89.66;100736.34;4914369;29;20170;-65
2023/06/17 00:52:07;;;;;;;6.97;2.92;;;;;;;20.05;89.59;100738.03;4916535;29;20039;-65
2023/06/17 00:54:42;;;;;;;4.47;2.92;;;;;;;20.14;89.03;100734.75;4917012;29;20521;-65
2023/06/17 00:57:09;;;;;;;7.80;3.22;;;;;;;20.10;89.14;100725.81;4925809;28;20052;-65
2023/06/17 00:59:37;;;;;;;7.28;3.47;;;;;;;20.16;88.79;100727.69;4981201;28;20031;-65
2023/06/17 01:02:09;;;;;;;5.60;3.35;;;;;;;20.13;88.78;100731.22;4989704;28;20385;-67
2023/06/17 01:04:37;;;;;;;6.00;2.95;;;;;;;20.13;89.20;100725.75;4985939;28;20042;-65
2023/06/17 01:07:12;;;;;;;6.82;3.80;;;;;;;20.06;89.37;100725.88;4981964;28;20037;-65
2023/06/17 01:09:47;;;;;;;4.30;2.65;;;;;;;20.08;89.02;100728.19;4980347;28;20033;-65
2023/06/17 01:12:14;;;;;;;5.82;2.85;;;;;;;20.05;89.12;100734.53;4982250;28;20108;-65
2023/06/17 01:14:42;;;;;;;8.63;3.53;;;;;;;19.97;89.54;100733.88;4985782;28;20679;-65
2023/06/17 01:17:12;;;;;;;7.35;3.42;;;;;;;20.03;89.34;100734.16;4982613;28;20569;-64
2023/06/17 01:19:39;;;;;;;6.87;3.23;;;;;;;19.90;89.79;100722.28;4989352;28;20100;-65
2023/06/17 01:22:13;;;;;;;6.57;3.63;;;;;;;19.95;89.64;100725.31;4985984;28;20304;-65
2023/06/17 01:24:40;;;;;;;10.55;3.92;;;;;;;19.95;89.38;100724.53;4982774;28;20030;-65
2023/06/17 01:27:06;;;;;;;5.13;2.90;;;;;;;19.91;89.72;100718.34;4980414;28;20102;-65
2023/06/17 01:29:41;;;;;;;9.40;3.47;;;;;;;19.98;89.58;100718.22;4987395;28;20114;-65
2023/06/17 01:32:07;;;;;;;6.28;3.25;;;;;;;19.97;89.86;100717.47;4978049;28;20039;-66
2023/06/17 01:34:50;;;;;;;6.47;2.80;;;;;;;19.96;89.33;100715.13;4971500;28;20026;-66
2023/06/17 01:37:23;;;;;;;9.35;3.95;;;;;;;19.96;89.62;100706.91;4984165;28;20030;-65
2023/06/17 01:39:50;;;;;;;8.05;3.95;;;;;;;20.01;89.43;100709.19;4992121;28;20097;-65
2023/06/17 01:42:25;;;;;;;10.25;4.03;;;;;;;20.01;89.47;100712.72;4995107;28;20034;-65
2023/06/17 01:44:52;;;;;;;6.93;3.60;;;;;;;20.02;89.39;100708.00;4986088;28;20039;-65
2023/06/17 01:47:18;;;;;;;7.38;3.47;;;;;;;19.92;90.04;100711.69;4965463;28;20026;-65
2023/06/17 01:49:43;;;;;;;6.60;3.10;;;;;;;19.93;89.92;100713.22;4993736;28;20528;-65
2023/06/17 01:52:11;;;;;;;10.00;3.47;;;;;;;19.90;89.95;100712.09;4983571;28;20077;-65
2023/06/17 01:54:37;;;;;;;11.32;3.55;;;;;;;19.91;89.93;100715.59;4992601;28;20030;-65
2023/06/17 01:57:03;;;;;;;5.55;3.17;;;;;;;19.92;89.95;100712.44;4992858;28;20030;-65
2023/06/17 01:59:30;;;;;;;7.43;2.95;;;;;;;19.94;89.90;100710.06;4988066;28;20632;-65
2023/06/17 02:01:55;;;;;;;8.38;3.33;;;;;;;19.99;89.59;100712.34;4993835;28;20053;-65
2023/06/17 02:04:21;;;;;;;7.93;3.83;;;;;;;20.08;89.37;100715.31;4987590;28;20030;-65
2023/06/17 02:06:46;;;;;;;8.82;3.25;;;;;;;20.02;88.83;100713.47;4981244;28;20061;-65
2023/06/17 02:09:13;;;;;;;10.02;4.47;;;;;;;19.96;89.49;100704.97;4988054;28;20026;-68
2023/06/17 02:11:40;;;;;;;6.68;3.13;;;;;;;19.98;89.54;100715.47;4995810;28;20034;-65
2023/06/17 02:14:06;;;;;;;8.52;3.65;;;;;;;19.91;89.82;100708.19;4987957;28;20096;-65
2023/06/17 02:16:32;;;;;;;7.32;3.08;;;;;;;19.88;90.09;100708.25;4984451;28;20023;-65
2023/06/17 02:18:57;;;;;;;9.77;4.30;;;;;;;19.88;90.42;100719.94;4991822;28;20036;-65
2023/06/17 02:21:23;;;;;;;7.05;3.95;;;;;;;19.78;90.41;100721.66;4983802;28;20407;-65
2023/06/17 02:23:50;;;;;;;6.00;3.42;;;;;;;19.88;90.40;100721.91;4981671;28;20027;-65
2023/06/17 02:26:18;;;;;;;7.93;3.47;;;;;;;19.85;90.33;100726.25;4987646;28;20054;-65
2023/06/17 02:28:44;;;;;;;6.95;3.50;;;;;;;19.85;90.73;100717.28;4984997;28;20041;-65
2023/06/17 02:31:09;;;;;;;6.43;3.10;;;;;;;19.85;90.67;100720.78;4993189;28;20029;-65
2023/06/17 02:33:35;;;;;;;9.30;3.97;;;;;;;19.87;90.88;100728.56;4987823;28;20038;-64
2023/06/17 02:36:01;;;;;;;6.72;3.28;;;;;;;19.87;90.81;100729.34;4984539;28;20046;-67
2023/06/17 02:38:26;;;;;;;10.98;4.03;;;;;;;19.83;90.87;100728.63;4984616;28;20027;-65
2023/06/17 02:40:52;;;;;;;9.32;4.50;;;;;;;19.90;90.73;100719.56;4995490;28;20132;-64
2023/06/17 02:43:18;;;;;;;6.32;3.08;;;;;;;19.94;90.52;100717.53;4991090;28;20623;-65
2023/06/17 02:45:46;;;;;;;12.13;4.72;;;;;;;19.92;90.57;100726.13;4994593;28;20027;-65
2023/06/17 02:48:12;;;;;;;5.85;2.97;;;;;;;19.92;90.42;100722.63;4978969;28;20030;-64
2023/06/17 02:50:37;;;;;;;6.47;3.17;;;;;;;19.93;90.65;100715.97;4986640;28;20030;-65
2023/06/17 02:53:04;;;;;;;7.88;3.13;;;;;;;19.91;90.44;100710.16;4988265;28;20558;-64
2023/06/17 02:55:30;;;;;;;6.72;3.40;;;;;;;19.85;90.38;100704.38;4989134;28;20069;-65
2023/06/17 02:57:57;;;;;;;8.57;4.13;;;;;;;19.98;90.15;100708.06;4981198;28;20108;-65
2023/06/17 03:00:24;;;;;;;6.03;3.22;;;;;;;19.93;90.02;100708.53;4977631;28;20030;-65
2023/06/17 03:02:50;;;;;;;12.77;3.88;;;;;;;19.92;89.66;100701.53;4973748;28;20431;-65
2023/06/17 03:05:16;;;;;;;10.65;4.38;;;;;;;19.98;89.75;100705.31;4973745;28;20037;-65
2023/06/17 03:07:42;;;;;;;8.30;3.78;;;;;;;20.07;88.97;100716.50;4973468;28;20097;-65
2023/06/17 03:10:09;;;;;;;7.75;3.67;;;;;;;20.06;88.89;100703.22;4973909;28;20360;-64
2023/06/17 03:12:41;;;;;;;8.45;4.15;;;;;;;19.99;89.09;100709.63;4976538;28;20119;-65
2023/06/17 03:15:08;;;;;;;9.93;4.15;;;;;;;19.97;89.10;100708.47;4972130;28;20027;-65
2023/06/17 03:17:34;;;;;;;10.30;4.20;;;;;;;19.89;89.52;100704.31;4972807;28;20470;-65
2023/06/17 03:20:00;;;;;;;6.18;3.83;;;;;;;19.93;89.66;100711.28;4983836;28;20058;-65
2023/06/17 03:22:25;;;;;;;8.43;4.68;;;;;;;19.83;90.26;100705.97;4975069;28;20034;-67
2023/06/17 03:24:51;;;;;;;6.38;3.53;;;;;;;19.74;90.61;100704.53;4972593;28;20018;-63
2023/06/17 03:27:16;;;;;;;8.05;4.20;;;;;;;19.85;90.59;100711.81;4973551;28;20027;-65
2023/06/17 03:29:42;;;;;;;10.00;3.55;;;;;;;19.86;90.79;100711.38;4972356;28;20554;-65
2023/06/17 03:32:08;;;;;;;7.30;4.03;;;;;;;19.82;90.85;100707.19;4974206;28;20042;-65
2023/06/17 03:34:33;;;;;;;7.35;3.60;;;;;;;19.79;91.12;100712.28;4972895;28;20035;-64
2023/06/17 03:37:03;;;;;;;11.57;4.47;;;;;;;19.86;90.76;100710.63;4972139;28;20034;-63
2023/06/17 03:39:28;;;;;;;8.88;4.18;;;;;;;19.88;90.75;100719.19;4972258;28;20038;-64
2023/06/17 03:41:54;;;;;;;7.20;3.88;;;;;;;19.95;90.28;100714.38;4979886;28;20115;-67
2023/06/17 03:44:20;;;;;;;10.77;4.88;;;;;;;19.97;89.88;100713.94;4982418;28;20042;-67
2023/06/17 03:46:45;;;;;;;8.77;4.07;;;;;;;19.90;90.29;100711.34;4992555;28;20030;-66
2023/06/17 03:49:11;;;;;;;8.32;4.05;;;;;;;19.83;90.81;100711.44;4985548;28;20169;-64
2023/06/17 03:51:37;;;;;;;13.85;5.07;;;;;;;19.81;90.98;100711.88;4980471;28;20476;-64
2023/06/17 03:54:03;;;;;;;10.27;4.85;;;;;;;19.78;91.11;100712.72;4980048;28;20027;-64
2023/06/17 03:56:32;;;;;;;8.90;3.72;;;;;;;19.82;91.23;100718.13;4985381;28;20027;-64
2023/06/17 03:58:57;;;;;;;10.07;4.63;;;;;;;19.82;91.14;100715.38;4988130;28;20100;-65
2023/06/17 04:01:23;;;;;;;9.52;4.78;;;;;;;19.85;91.15;100709.84;4983501;28;20587;-64
2023/06/17 04:03:48;;;;;;;9.05;4.10;;;;;;;19.85;91.17;100709.84;4986870;28;20030;-64
2023/06/17 04:06:14;;;;;;;7.10;3.70;;;;;;;19.86;91.23;100719.59;4980904;28;20062;-64
2023/06/17 04:08:41;;;;;;;8.35;4.03;;;;;;;19.84;91.49;100719.22;4995172;28;20049;-64
2023/06/17 04:11:07;;;;;;;9.18;3.60;;;;;;;19.88;91.36;100716.47;4977029;28;20034;-64
2023/06/17 04:13:33;;;;;;;9.43;4.38;;;;;;;19.92;90.96;100719.91;4983280;28;20030;-66
2023/06/17 04:15:58;;;;;;;9.30;4.07;;;;;;;19.91;91.11;100716.38;4990752;28;20498;-64
2023/06/17 04:18:28;;;;;;;9.80;4.22;;;;;;;19.92;90.99;100723.38;4989148;28;20037;-65
2023/06/17 04:20:56;;;;;;;7.40;3.65;;;;;;;19.99;90.72;100725.25;4986549;28;20023;-64
2023/06/17 04:23:25;;;;;;;9.90;4.68;;;;;;;19.97;90.95;100722.16;4986495;28;20077;-63
2023/06/17 04:25:53;;;;;;;10.27;4.18;;;;;;;20.03;90.19;100720.50;4982539;28;20118;-63
2023/06/17 04:28:18;;;;;;;8.18;3.55;;;;;;;19.97;90.51;100722.16;4989292;28;20047;-65
2023/06/17 04:30:47;;;;;;;6.82;3.65;;;;;;;20.01;90.38;100720.91;4983069;28;20258;-67
2023/06/17 04:33:14;;;;;;;10.43;4.82;;;;;;;19.99;90.73;100720.56;4983178;28;20058;-64
2023/06/17 04:35:44;;;;;;;11.18;4.65;;;;;;;19.99;90.70;100725.25;4983528;28;20027;-64
2023/06/17 04:38:11;;;;;;;9.88;4.22;;;;;;;20.01;90.87;100723.66;4981075;28;20041;-64
2023/06/17 04:40:38;;;;;;;9.65;3.78;;;;;;;20.12;89.96;100724.22;4994143;28;20041;-64
2023/06/17 04:43:04;;;;;;;8.05;3.38;;;;;;;20.08;90.13;100725.47;4978656;28;20037;-67
2023/06/17 04:45:31;;;;;;;13.02;4.43;;;;;;;20.03;90.34;100721.28;5000337;28;20033;-67
2023/06/17 04:48:03;;;;;;;9.52;4.63;;;;;;;20.02;90.44;100718.94;4981956;22;20523;-66
2023/06/17 04:50:29;;;;;;;8.10;3.85;;;;;;;20.00;90.80;100724.03;5007403;28;20030;-66
2023/06/17 04:53:03;;;;;;;9.23;4.13;;;;;;;20.05;90.83;100726.31;5013427;28;20079;-65
2023/06/17 04:55:30;;;;;;;8.75;3.72;;;;;;;20.04;90.67;100724.75;4981891;28;20021;-65
2023/06/17 04:57:56;;;;;;;9.07;4.05;;;;;;;20.05;90.47;100720.84;4989050;28;20038;-65
2023/06/17 05:00:44;;;;;;;15.27;4.32;;;;;;;20.05;90.63;100721.63;4977529;28;20116;-66
2023/06/17 05:03:14;;;;;;;12.35;4.35;;;;;;;20.11;90.69;100727.38;4995949;28;20025;-65
2023/06/17 05:05:39;;;;;;;8.65;3.92;;;;;;;20.20;89.85;100719.44;4989917;28;20513;-65
2023/06/17 05:08:05;;;;;;;7.72;3.92;;;;;;;20.23;89.78;100724.06;4988918;28;20026;-65
2023/06/17 05:10:31;;;;;;;8.88;4.47;;;;;;;20.17;89.96;100723.72;4988321;28;20042;-65
2023/06/17 05:12:56;;;;;;;9.02;5.07;;;;;;;20.23;89.91;100730.31;4990625;28;20035;-66
2023/06/17 05:15:22;;;;;;;11.02;4.82;;;;;;;20.22;89.90;100733.47;4988548;28;20033;-65
2023/06/17 05:17:47;;;;;;;10.98;4.82;;;;;;;20.18;90.46;100724.50;4985689;28;20072;-66
2023/06/17 05:20:14;;;;;;;10.07;4.18;;;;;;;20.18;90.61;100717.13;4989438;28;20128;-66
2023/06/17 05:22:40;;;;;;;8.07;4.60;;;;;;;20.16;90.72;100718.69;4988849;28;20113;-66
2023/06/17 05:25:06;;;;;;;7.93;4.20;;;;;;;20.19;90.78;100720.63;4987181;28;20581;-66
2023/06/17 05:27:32;;;;;;;7.68;4.18;;;;;;;20.18;90.91;100730.00;4986481;28;20072;-64
2023/06/17 05:29:58;;;;;;;10.00;4.50;;;;;;;20.23;90.76;100732.25;4987650;28;20395;-64
2023/06/17 05:32:24;;;;;;;12.57;4.38;;;;;;;20.40;89.89;100728.44;4988507;28;20101;-64
2023/06/17 05:34:50;;;;;;;12.63;5.03;;;;;;;20.40;89.34;100734.69;4976660;28;20460;-64
2023/06/17 05:37:16;;;;;;;8.85;4.35;;;;;;;20.32;89.51;100733.28;5002050;28;20045;-64
2023/06/17 05:39:42;;;;;;;11.32;4.38;;;;;;;20.28;89.80;100731.78;4986276;28;20065;-64
2023/06/17 05:42:07;;;;;;;8.93;4.45;;;;;;;20.25;90.12;100735.34;4980704;28;20030;-64
2023/06/17 05:44:33;;;;;;;9.48;4.38;;;;;;;20.27;90.25;100733.75;4989461;28;20050;-64
2023/06/17 05:46:59;;;;;;;10.27;4.40;;;;;;;20.31;90.01;100747.34;4996947;28;20033;-64
2023/06/17 05:49:24;;;;;;;14.30;5.60;;;;;;;20.31;90.01;100733.69;4988373;28;20033;-64
2023/06/17 05:51:50;;;;;;;10.02;5.03;;;;;;;20.32;90.15;100737.97;4971772;28;20033;-64
2023/06/17 05:54:15;;;;;;;11.07;4.32;;;;;;;20.35;89.93;100748.84;4986597;28;20026;-64
2023/06/17 05:56:41;;;;;;;9.63;4.38;;;;;;;20.36;90.20;100739.44;4990663;28;20088;-64
2023/06/17 05:59:07;;;;;;;8.38;4.55;;;;;;;20.34;90.04;100746.53;4968931;28;20026;-64
2023/06/17 06:01:36;;;;;;;12.30;4.90;;;;;;;20.40;89.98;100747.59;4978107;28;20035;-64
2023/06/17 06:04:01;;;;;;;14.05;4.28;;;;;;;20.41;89.21;100743.66;4990131;28;20033;-64
2023/06/17 06:06:27;;;;;;;9.20;4.78;;;;;;;20.38;89.69;100748.00;4987815;28;20033;-64
2023/06/17 06:08:53;;;;;;;7.60;4.25;;;;;;;20.38;89.40;100747.25;4985284;28;20086;-64
2023/06/17 06:11:19;;;;;;;10.60;4.88;;;;;;;20.35;89.76;100759.00;4983570;28;20116;-64
2023/06/17 06:13:44;;;;;;;13.20;4.38;;;;;;;20.44;89.78;100759.25;4994241;28;20402;-64
2023/06/17 06:16:11;;;;;;;10.82;4.53;;;;;;;20.47;89.56;100756.44;4987750;28;20540;-64
2023/06/17 06:18:37;;;;;;;8.68;3.75;;;;;;;20.57;89.29;100765.66;4986271;28;20121;-63
2023/06/17 06:21:02;;;;;;;10.55;4.47;;;;;;;20.66;88.61;100765.88;4993068;28;20026;-64
2023/06/17 06:23:28;;;;;;;9.68;4.20;;;;;;;20.61;88.78;100769.09;4992862;28;20034;-64
2023/06/17 06:25:54;;;;;;;6.32;3.80;;;;;;;20.53;89.12;100767.69;4987881;28;20015;-64
2023/06/17 06:28:19;;;;;;;11.93;3.92;;;;;;;20.55;88.84;100768.81;4983700;28;20036;-64
2023/06/17 06:30:45;;;;;;;8.82;4.50;;;;;;;20.59;88.93;100766.00;4994379;28;20101;-64
2023/06/17 06:33:10;;;;;;;10.05;4.25;;;;;;;20.65;89.00;100767.81;4971525;28;20479;-64
2023/06/17 06:35:36;;;;;;;6.13;3.60;;;;;;;20.62;88.87;100771.41;4990797;28;20026;-64
2023/06/17 06:38:02;;;;;;;11.13;4.60;;;;;;;20.62;89.15;100773.38;4991266;28;20125;-63
2023/06/17 06:40:28;;;;;;;8.65;4.40;;;;;;;20.64;89.14;100776.47;4988034;28;20125;-64
2023/06/17 06:42:53;;;;;;;6.97;3.90;;;;;;;20.73;88.92;100773.19;4986318;28;20505;-64
2023/06/17 06:45:22;;;;;;;7.95;3.75;;;;;;;20.80;88.37;100765.59;4998478;28;20118;-63
2023/06/17 06:47:48;;;;;;;11.43;4.63;;;;;;;20.79;88.23;100769.50;4990979;28;20117;-64
2023/06/17 06:50:13;;;;;;;7.38;3.50;;;;;;;20.89;88.01;100770.50;4989622;28;20121;-63
2023/06/17 06:52:39;;;;;;;8.35;4.00;;;;;;;20.90;87.73;100783.00;4992831;28;20092;-63
2023/06/17 06:55:05;;;;;;;9.15;3.80;;;;;;;20.92;87.92;100775.94;4985948;28;20097;-64
2023/06/17 06:57:31;;;;;;;9.73;4.03;;;;;;;20.95;87.66;100783.28;4989791;28;20422;-64
2023/06/17 06:59:56;;;;;;;9.05;4.13;;;;;;;21.03;87.53;100779.25;4988462;28;20034;-63
2023/06/17 07:02:22;;;;;;;8.43;4.18;;;;;;;21.03;87.03;100781.97;4984733;28;20022;-64
2023/06/17 07:04:48;;;;;;;10.95;4.25;;;;;;;21.08;87.04;100777.97;4986478;28;20404;-63
2023/06/17 07:07:18;;;;;;;6.07;3.55;;;;;;;21.05;86.97;100785.06;4989967;28;20121;-64
2023/06/17 07:09:45;;;;;;;6.10;3.50;;;;;;;21.07;86.63;100779.94;4989921;28;20061;-64
2023/06/17 07:12:11;;;;;;;9.30;4.18;;;;;;;21.06;87.11;100786.59;4986453;28;20120;-64
2023/06/17 07:15:00;;;;;;;8.52;3.90;;;;;;;21.06;86.74;100788.59;5003199;28;20023;-64
2023/06/17 07:17:29;;;;;;;11.15;4.32;;;;;;;21.13;86.62;100785.69;4902047;29;20055;-65
2023/06/17 07:19:55;;;;;;;8.05;4.03;;;;;;;21.18;87.02;100791.44;4933411;29;20066;-64
2023/06/17 07:22:21;;;;;;;8.30;4.05;;;;;;;21.23;86.65;100795.66;4925696;29;20606;-64
2023/06/17 07:24:46;;;;;;;8.75;4.05;;;;;;;21.27;86.60;100807.31;4909777;29;20465;-64
2023/06/17 07:27:12;;;;;;;7.60;3.63;;;;;;;21.26;86.54;100803.81;4908713;29;20044;-64
2023/06/17 07:29:38;;;;;;;8.48;4.38;;;;;;;21.28;86.35;100806.91;4917213;29;20044;-65
2023/06/17 07:32:04;;;;;;;9.07;4.45;;;;;;;21.27;86.44;100802.59;4933778;29;20043;-64
2023/06/17 07:34:30;;;;;;;9.10;4.47;;;;;;;21.32;85.81;100807.59;4919382;29;20128;-64
2023/06/17 07:36:56;;;;;;;8.60;4.30;;;;;;;21.32;85.99;100799.38;4930524;29;20130;-64
2023/06/17 07:39:22;;;;;;;11.10;4.13;;;;;;;21.37;85.59;100809.81;4915357;29;20553;-64
2023/06/17 07:41:47;;;;;;;7.95;3.88;;;;;;;21.42;85.60;100806.59;4915885;29;20119;-64
2023/06/17 07:44:13;;;;;;;10.30;4.18;;;;;;;21.53;85.32;100804.38;4931594;29;20047;-64
2023/06/17 07:46:38;;;;;;;8.82;4.38;;;;;;;21.56;85.19;100802.78;4927640;29;20571;-64
2023/06/17 07:49:03;;;;;;;10.90;4.45;;;;;;;21.58;85.10;100805.09;4913690;29;20042;-63
2023/06/17 07:51:29;;;;;;;8.52;3.88;;;;;;;21.56;85.06;100802.78;4926601;29;20483;-65
2023/06/17 07:53:54;;;;;;;7.57;4.07;;;;;;;21.43;84.59;100799.13;4935679;28;20133;-66
2023/06/17 07:56:20;;;;;;;8.07;4.18;;;;;;;21.44;84.38;100797.94;4985880;28;20029;-66
2023/06/17 07:58:46;;;;;;;7.68;3.90;;;;;;;21.51;84.35;100790.34;4988258;28;20058;-66
2023/06/17 08:01:11;;;;;;;10.43;4.82;;;;;;;21.70;83.41;100794.22;4982926;28;20053;-66
2023/06/17 08:03:37;;;;;;;10.02;5.15;;;;;;;21.73;83.02;100795.34;4980992;28;20034;-66
2023/06/17 08:06:03;;;;;;;9.02;4.38;;;;;;;21.78;83.38;100794.81;4982288;28;20039;-66
2023/06/17 08:08:29;;;;;;;8.40;4.20;;;;;;;21.84;83.85;100795.88;4982724;28;20034;-66
2023/06/17 08:10:54;;;;;;;9.38;4.00;;;;;;;21.88;83.35;100794.59;4982302;28;20490;-66
2023/06/17 08:13:20;;;;;;;12.25;4.30;;;;;;;21.93;83.43;100804.31;4974361;28;20089;-66
2023/06/17 08:15:45;;;;;;;10.80;4.38;;;;;;;21.97;83.19;100796.75;4992026;28;20030;-66
2023/06/17 08:18:11;;;;;;;7.57;3.85;;;;;;;22.00;83.16;100796.66;4982894;28;20029;-66
2023/06/17 08:20:36;;;;;;;8.75;4.20;;;;;;;22.00;82.71;100798.63;4999982;28;20071;-65
2023/06/17 08:23:02;;;;;;;7.82;3.97;;;;;;;22.06;82.21;100792.22;4982302;28;20038;-66
2023/06/17 08:25:28;;;;;;;12.90;5.22;;;;;;;22.08;81.91;100794.53;4981258;28;20423;-66
2023/06/17 08:27:53;;;;;;;11.55;4.43;;;;;;;22.13;82.03;100783.03;4982153;28;20052;-66
2023/06/17 08:30:19;;;;;;;10.20;4.68;;;;;;;22.12;81.97;100784.22;4985667;28;20030;-66
2023/06/17 08:32:44;;;;;;;8.95;4.43;;;;;;;22.19;81.72;100789.53;4972899;28;20037;-66
2023/06/17 08:35:10;;;;;;;10.93;5.20;;;;;;;22.21;81.15;100787.13;4982662;28;20491;-65
2023/06/17 08:37:35;;;;;;;7.18;3.70;;;;;;;22.28;81.08;100792.44;4987012;28;20053;-65
2023/06/17 08:40:04;;;;;;;6.82;3.90;;;;;;;22.38;80.89;100792.16;4980910;28;20491;-66
2023/06/17 08:42:31;;;;;;;11.50;4.22;;;;;;;22.44;80.21;100795.16;4982992;28;20448;-66
2023/06/17 08:44:59;;;;;;;7.85;3.72;;;;;;;22.45;80.79;100794.72;4987804;28;20029;-65
2023/06/17 08:47:26;;;;;;;9.02;4.05;;;;;;;22.45;80.06;100799.47;4977509;28;20932;-66
2023/06/17 08:49:54;;;;;;;10.80;4.60;;;;;;;22.55;79.50;100787.41;4987143;28;20037;-66
2023/06/17 08:52:20;;;;;;;7.47;3.75;;;;;;;22.57;79.58;100787.78;4987476;28;20039;-65
2023/06/17 08:54:47;;;;;;;8.52;4.45;;;;;;;22.55;79.35;100798.38;4985998;28;20021;-66
2023/06/17 08:57:13;;;;;;;8.85;3.80;;;;;;;22.65;79.33;100794.63;4997591;28;20035;-66
2023/06/17 08:59:40;;;;;;;7.82;4.45;;;;;;;22.61;78.73;100793.19;4984820;28;20414;-66
2023/06/17 09:02:06;;;;;;;8.27;4.43;;;;;;;22.67;78.10;100796.94;4991338;28;20100;-66
2023/06/17 09:04:31;;;;;;;7.63;3.97;;;;;;;22.79;78.58;100805.22;4991702;28;20797;-66
2023/06/17 09:06:57;;;;;;;8.18;3.90;;;;;;;22.90;78.69;100791.97;4987091;28;20038;-66
2023/06/17 09:09:22;;;;;;;9.00;3.50;;;;;;;22.96;78.72;100794.94;4986209;28;20061;-72
2023/06/17 09:11:50;;;;;;;10.45;3.63;;;;;;;22.97;78.02;100794.53;4984674;28;20034;-66
2023/06/17 09:14:17;;;;;;;6.38;3.85;;;;;;;22.88;76.63;100799.88;4994570;28;20479;-66
2023/06/17 09:16:43;;;;;;;7.47;3.33;;;;;;;22.98;76.81;100795.28;4989546;28;20049;-67
2023/06/17 09:19:09;;;;;;;7.25;3.78;;;;;;;23.24;76.29;100803.16;4991697;28;20033;-67
2023/06/17 09:21:35;;;;;;;11.07;4.47;;;;;;;23.22;75.11;100789.09;5001961;28;20045;-66
2023/06/17 09:24:05;;;;;;;7.82;3.97;;;;;;;23.45;74.71;100796.28;4988450;28;20030;-66
2023/06/17 09:26:33;;;;;;;6.27;4.03;;;;;;;23.61;75.66;100793.44;4996308;28;20049;-67
2023/06/17 09:29:01;;;;;;;6.47;3.55;;;;;;;23.83;75.32;100796.28;4989962;28;20058;-67
2023/06/17 09:31:28;;;;;;;6.40;3.53;;;;;;;23.82;73.53;100797.50;4980642;28;20026;-67
2023/06/17 09:33:55;;;;;;;9.45;3.88;;;;;;;24.03;73.17;100792.13;4986333;28;20089;-67
2023/06/17 09:36:22;;;;;;;7.70;3.30;;;;;;;24.32;72.74;100808.47;4991112;28;20027;-67
2023/06/17 09:38:50;;;;;;;5.63;3.05;;;;;;;24.70;71.51;100800.81;4984187;28;20054;-67
2023/06/17 09:41:16;;;;;;;7.22;3.50;;;;;;;24.96;70.39;100809.78;4985084;28;20030;-67
2023/06/17 09:43:48;;;;;;;9.82;3.70;;;;;;;25.19;67.58;100809.31;4989994;28;20026;-67
2023/06/17 09:46:13;;;;;;;6.63;3.42;;;;;;;25.47;67.59;100802.75;4982113;28;20660;-67
2023/06/17 09:48:40;;;;;;;6.18;3.38;;;;;;;25.84;66.58;100809.19;4993309;28;20042;-67
2023/06/17 09:51:12;;;;;;;8.25;3.42;;;;;;;25.98;62.71;100802.31;4988722;28;20042;-67
2023/06/17 09:53:38;;;;;;;8.85;3.70;;;;;;;25.83;61.96;100800.13;4976183;28;20129;-67
2023/06/17 09:56:10;;;;;;;6.18;3.08;;;;;;;25.89;62.77;100801.06;4988074;28;20093;-67
2023/06/17 09:58:37;;;;;;;7.32;3.85;;;;;;;25.99;63.18;100796.34;4998386;28;20038;-67
2023/06/17 10:01:07;;;;;;;7.28;3.40;;;;;;;25.83;61.93;100796.59;4981221;28;20058;-67
2023/06/17 10:03:33;;;;;;;5.53;3.42;;;;;;;25.97;63.02;100795.25;4992324;28;20027;-67
2023/06/17 10:06:03;;;;;;;5.25;3.30;;;;;;;26.14;61.53;100800.06;4990337;28;20410;-67
2023/06/17 10:08:30;;;;;;;7.18;3.63;;;;;;;26.09;61.32;100789.66;4990121;28;20538;-68
2023/06/17 10:11:00;;;;;;;9.07;3.03;;;;;;;26.18;60.86;100791.63;4985198;28;20046;-67
2023/06/17 10:13:28;;;;;;;4.93;2.70;;;;;;;26.37;60.46;100793.19;4990248;28;20030;-67
2023/06/17 10:15:56;;;;;;;5.32;2.53;;;;;;;26.53;59.68;100788.16;4990840;28;20030;-67
2023/06/17 10:18:23;;;;;;;3.72;2.35;;;;;;;26.85;58.92;100789.53;4990976;28;20039;-67
2023/06/17 10:20:50;;;;;;;5.78;2.65;;;;;;;27.05;57.50;100792.56;4995841;28;20030;-67
2023/06/17 10:23:20;;;;;;;3.55;2.60;;;;;;;27.27;56.11;100795.91;4984432;28;20039;-67
2023/06/17 10:25:46;;;;;;;5.05;2.47;;;;;;;27.52;54.64;100797.53;4988575;28;20030;-67
2023/06/17 10:28:15;;;;;;;4.50;2.08;;;;;;;27.58;52.97;100788.13;4988497;28;20077;-67
2023/06/17 10:30:43;;;;;;;5.30;2.25;;;;;;;28.24;53.28;100788.09;4986488;28;20120;-67
2023/06/17 10:33:09;;;;;;;6.57;2.75;;;;;;;28.39;52.92;100794.44;5002127;28;20053;-67
2023/06/17 10:35:43;;;;;;;5.40;2.97;;;;;;;28.32;52.71;100794.81;4995945;28;20065;-67
2023/06/17 10:38:09;;;;;;;5.68;2.55;;;;;;;28.39;51.95;100799.97;4997670;28;20109;-67
2023/06/17 10:40:47;;;;;;;5.68;2.72;;;;;;;27.85;51.07;100789.22;4999568;28;20113;-67
2023/06/17 10:43:13;;;;;;;7.88;2.90;;;;;;;28.08;52.20;100786.50;4994252;28;20172;-67
2023/06/17 10:45:55;;;;;;;3.38;2.20;;;;;;;28.04;52.79;100793.44;4981953;28;20117;-67
2023/06/17 10:48:21;;;;;;;5.68;2.55;;;;;;;27.83;52.67;100786.94;5014395;23;20045;-66
2023/06/17 10:50:54;;;;;;;3.83;2.38;;;;;;;27.76;52.42;100792.78;5009161;28;20560;-65
2023/06/17 10:53:25;;;;;;;3.85;2.15;;;;;;;27.70;51.84;100789.13;5016860;28;20125;-66
2023/06/17 10:55:51;;;;;;;5.38;2.42;;;;;;;27.67;52.19;100788.09;5012518;28;20045;-67
2023/06/17 10:58:16;;;;;;;5.05;2.35;;;;;;;27.33;53.18;100785.75;5017939;28;20076;-69
2023/06/17 11:00:42;;;;;;;6.45;2.53;;;;;;;27.40;52.68;100787.44;4998281;28;20484;-66
2023/06/17 11:03:14;;;;;;;4.65;2.90;;;;;;;27.59;52.54;100773.06;5030612;28;20038;-67
2023/06/17 11:05:40;;;;;;;6.88;3.72;;;;;;;26.93;52.54;100781.69;5022274;28;20041;-67
2023/06/17 11:08:05;;;;;;;4.40;2.50;;;;;;;27.29;51.58;100778.84;5020980;28;20716;-66
2023/06/17 11:10:31;;;;;;;3.35;2.17;;;;;;;27.53;50.93;100779.69;5028486;28;20495;-66
2023/06/17 11:12:57;;;;;;;3.80;2.20;;;;;;;27.73;50.36;100770.81;5032181;28;20049;-67
2023/06/17 11:15:23;;;;;;;3.30;1.95;;;;;;;27.71;50.67;100784.38;5026493;28;20516;-66
2023/06/17 11:18:03;;;;;;;6.20;2.28;;;;;;;27.94;51.17;100783.63;5029970;28;20037;-67
2023/06/17 11:20:32;;;;;;;4.03;2.40;;;;;;;28.06;49.85;100780.66;5027852;28;20441;-67
2023/06/17 11:22:58;;;;;;;5.07;2.10;;;;;;;28.45;50.54;100784.22;5025019;28;20030;-66